Aérodrome :
LOGIN :

S'inscrire | Disclaimer

   EN    FR    IT 

 










Légende :    VFR   VFR Marginal   IFR   IFR Intensif   IFR Très Intensif
Visi : 
Plafond : 
>= 8 km
>= 3000ft
5 à 8 km
1000 à 3000 ft
1500m à 5 km
500 à 1000 ft
800 à 1500m
200 à 500 ft
< 800m
< 200 ft
Symboles :   Orages  Brouillard  Fortes neiges  Fortes précipitations  Vent > 20 kt
SIGMETs :   Divers  Orages  Givrage  Turbulence  Onde Orograph.  Cendres Volcan.







- Altitude de l'aérodrome : 1649 ft
- Code IATA : HHN


EDFH - Frankfurt-Hahn Rhineland-Palatinate

DERNIER METAR :
  • 271250Z 25006KT 210V290 9999 SCT020 16/12 Q1010

METARs EXPIRÉS :
  • 271220Z 23007KT 190V280 9999 FEW013 SCT020 16/13 Q1010
  • 271150Z 24006KT 210V270 9999 SCT008 BKN014 15/13 Q1010
  • 271120Z 24008KT 210V270 9999 BKN008 15/13 Q1011
  • 271050Z 25009KT 220V280 9999 -DZ FEW002 BKN008 14/13 Q1011
  • 271020Z 24008KT 9000 -DZ BKN007 13/13 Q1011

TAF TAF EDFH
Valide du 27 à 12h jusqu'au 28 à 12h UTC


271100Z 2712/2812 27007KT 9999 SCT007 BKN015
PROB30
TEMPO 2712/2719 4000 SHRA BKN007 BKN015TCU
PROB30
TEMPO 2802/2806 4000 -RA BR BKN008
TEMPO 2810/2812 4000 SHRA BKN012 BKN020CB
Pas de NOTAMs connus pour ce terrain.



MET'MAP, la Météo Aéronautique d'un coup d'oeil ! - Copyright ORBIFLY Décembre 2007 - Disclaimer

ORBIFLY MET'MAP TEAM :

Programmation & Développement : Alexandra Zaïnal
Conception & Développement : Baudouin d'Aumeries
Co-Programmation & Développement : Marc-Olivier Méhu
Soutien technique & logistique : Manuel Goepfert

Contact : metmap@orbifly.com




SOURCES & CREDITS :

   NOAA